createdAt,value
2023-01-18T00:00:59.261Z,963.69
2023-01-18T00:02:01.088Z,963.71
2023-01-18T00:03:02.765Z,963.76
2023-01-18T00:04:04.468Z,963.75
2023-01-18T00:05:06.285Z,963.71
2023-01-18T00:06:07.927Z,963.71
2023-01-18T00:07:09.650Z,963.76
2023-01-18T00:08:11.412Z,963.76
2023-01-18T00:09:13.117Z,963.73
2023-01-18T00:10:14.856Z,963.71
2023-01-18T00:11:16.592Z,963.75
2023-01-18T00:12:18.342Z,963.7
2023-01-18T00:13:20.045Z,963.65
2023-01-18T00:14:21.799Z,963.7
2023-01-18T00:15:23.525Z,963.68
2023-01-18T00:16:25.371Z,963.62
2023-01-18T00:17:26.993Z,963.68
2023-01-18T00:18:28.726Z,963.65
2023-01-18T00:19:30.469Z,963.64
2023-01-18T00:20:32.256Z,963.61
2023-01-18T00:21:33.938Z,963.62
2023-01-18T00:22:35.665Z,963.63
2023-01-18T00:23:37.389Z,963.59
2023-01-18T00:24:39.131Z,963.57
2023-01-18T00:25:40.868Z,963.6
2023-01-18T00:26:42.606Z,963.58
2023-01-18T00:27:44.346Z,963.57
2023-01-18T00:28:46.064Z,963.58
2023-01-18T00:29:47.802Z,963.62
2023-01-18T00:30:49.584Z,963.59
2023-01-18T00:31:51.335Z,963.72
2023-01-18T00:32:53.012Z,963.63
2023-01-18T00:33:54.820Z,963.68
2023-01-18T00:34:56.489Z,963.63
2023-01-18T00:35:58.269Z,963.67
2023-01-18T00:36:59.945Z,963.63
2023-01-18T00:38:01.698Z,963.62
2023-01-18T00:39:03.407Z,963.66
2023-01-18T00:40:05.142Z,963.63
2023-01-18T00:41:06.869Z,963.68
2023-01-18T00:42:08.614Z,963.66
2023-01-18T00:43:10.343Z,963.57
2023-01-18T00:44:12.072Z,963.68
2023-01-18T00:45:13.803Z,963.65
2023-01-18T00:46:15.645Z,963.7
2023-01-18T00:47:17.288Z,963.67
2023-01-18T00:48:19.044Z,963.65
2023-01-18T00:49:20.764Z,963.65
2023-01-18T00:50:22.524Z,963.61
2023-01-18T00:51:24.227Z,963.65
2023-01-18T00:52:25.964Z,963.67
2023-01-18T00:53:27.674Z,963.63
2023-01-18T00:54:29.413Z,963.63
2023-01-18T00:55:31.144Z,963.64
2023-01-18T00:56:32.938Z,963.6
2023-01-18T00:57:34.614Z,963.67
2023-01-18T00:58:36.367Z,963.64
2023-01-18T00:59:38.083Z,963.65
2023-01-18T01:00:39.822Z,963.71
2023-01-18T01:01:41.701Z,963.68
2023-01-18T01:02:43.336Z,963.71
2023-01-18T01:03:45.033Z,963.71
2023-01-18T01:04:46.841Z,963.68
2023-01-18T01:05:48.756Z,963.7
2023-01-18T01:06:50.238Z,963.7
2023-01-18T01:07:51.932Z,963.73
2023-01-18T01:08:53.677Z,963.7
2023-01-18T01:09:55.419Z,963.76
2023-01-18T01:10:57.143Z,963.69
2023-01-18T01:11:58.894Z,963.73
2023-01-18T01:13:00.610Z,963.78
2023-01-18T01:14:02.359Z,963.75
2023-01-18T01:15:04.078Z,963.78
2023-01-18T01:16:05.830Z,963.79
2023-01-18T01:17:07.556Z,963.83
2023-01-18T01:18:09.302Z,963.81
2023-01-18T01:19:11.022Z,963.84
2023-01-18T01:20:12.823Z,963.84
2023-01-18T01:21:14.392Z,963.79
2023-01-18T01:22:16.113Z,963.81
2023-01-18T01:23:17.831Z,963.84
2023-01-18T01:24:19.608Z,963.82
2023-01-18T01:25:21.303Z,963.86
2023-01-18T01:26:23.053Z,963.85
2023-01-18T01:27:24.814Z,963.87
2023-01-18T01:28:26.514Z,963.89
2023-01-18T01:29:28.247Z,963.89
2023-01-18T01:30:30.089Z,963.93
2023-01-18T01:31:31.711Z,963.89
2023-01-18T01:32:33.479Z,963.89
2023-01-18T01:33:35.197Z,963.94
2023-01-18T01:34:36.966Z,963.98
2023-01-18T01:35:38.638Z,963.95
2023-01-18T01:36:40.490Z,963.9
2023-01-18T01:37:42.138Z,964
2023-01-18T01:38:43.871Z,964
2023-01-18T01:39:45.607Z,964.03
2023-01-18T01:40:47.329Z,964.1
2023-01-18T01:41:49.143Z,964.11
2023-01-18T01:42:50.794Z,964.1
2023-01-18T01:43:52.555Z,964.11
2023-01-18T01:44:54.272Z,964.15
2023-01-18T01:45:56.070Z,964.15
2023-01-18T01:46:57.723Z,964.16
2023-01-18T01:47:59.517Z,964.22
2023-01-18T01:49:01.217Z,964.18
2023-01-18T01:50:02.930Z,964.23
2023-01-18T01:51:04.685Z,964.21
2023-01-18T01:52:06.382Z,964.27
2023-01-18T01:53:08.162Z,964.24
2023-01-18T01:54:09.852Z,964.24
2023-01-18T01:55:11.617Z,964.23
2023-01-18T01:56:13.317Z,964.32
2023-01-18T01:57:15.123Z,964.33
2023-01-18T01:58:16.791Z,964.32
2023-01-18T01:59:18.561Z,964.3
2023-01-18T02:00:20.284Z,964.31
2023-01-18T02:01:22.156Z,964.33
2023-01-18T02:02:23.776Z,964.32
2023-01-18T02:03:25.511Z,964.35
2023-01-18T02:04:27.206Z,964.39
2023-01-18T02:05:28.928Z,964.38
2023-01-18T02:06:30.623Z,964.41
2023-01-18T02:07:32.361Z,964.38
2023-01-18T02:08:34.079Z,964.38
2023-01-18T02:09:35.830Z,964.41
2023-01-18T02:10:37.593Z,964.43
2023-01-18T02:11:39.324Z,964.46
2023-01-18T02:12:41.006Z,964.45
2023-01-18T02:13:42.801Z,964.41
2023-01-18T02:14:44.482Z,964.45
2023-01-18T02:15:46.215Z,964.47
2023-01-18T02:16:48.013Z,964.49
2023-01-18T02:17:49.694Z,964.56
2023-01-18T02:18:51.457Z,964.52
2023-01-18T02:19:53.172Z,964.52
2023-01-18T02:20:54.922Z,964.55
2023-01-18T02:21:56.633Z,964.53
2023-01-18T02:22:58.792Z,964.6
2023-01-18T02:24:00.122Z,964.56
2023-01-18T02:25:01.829Z,964.56
2023-01-18T02:26:03.588Z,964.53
2023-01-18T02:27:05.333Z,964.59
2023-01-18T02:28:07.045Z,964.48
2023-01-18T02:29:08.787Z,964.59
2023-01-18T02:30:10.511Z,964.59
2023-01-18T02:31:12.333Z,964.61
2023-01-18T02:32:13.998Z,964.63
2023-01-18T02:33:15.694Z,964.62
2023-01-18T02:34:17.501Z,964.62
2023-01-18T02:35:19.213Z,964.59
2023-01-18T02:36:20.918Z,964.65
2023-01-18T02:37:22.668Z,964.69
2023-01-18T02:38:24.357Z,964.66
2023-01-18T02:39:26.096Z,964.63
2023-01-18T02:40:27.869Z,964.68
2023-01-18T02:41:29.601Z,964.67
2023-01-18T02:42:31.338Z,964.69
2023-01-18T02:43:33.060Z,964.74
2023-01-18T02:44:34.771Z,964.7
2023-01-18T02:45:36.537Z,964.74
2023-01-18T02:46:38.247Z,964.76
2023-01-18T02:47:40.003Z,964.74
2023-01-18T02:48:41.734Z,964.7
2023-01-18T02:49:43.454Z,964.74
2023-01-18T02:50:45.233Z,964.82
2023-01-18T02:51:46.916Z,964.79
2023-01-18T02:52:48.696Z,964.78
2023-01-18T02:53:50.413Z,964.84
2023-01-18T02:54:52.131Z,964.83
2023-01-18T02:55:53.862Z,964.89
2023-01-18T02:56:55.612Z,964.9
2023-01-18T02:57:57.327Z,964.91
2023-01-18T02:58:59.097Z,964.93
2023-01-18T03:00:00.827Z,964.94
2023-01-18T03:01:02.617Z,964.9
2023-01-18T03:02:04.317Z,964.92
2023-01-18T03:03:05.985Z,964.89
2023-01-18T03:04:07.754Z,964.91
2023-01-18T03:05:09.480Z,964.9
2023-01-18T03:06:11.194Z,964.92
2023-01-18T03:07:12.947Z,964.92
2023-01-18T03:08:14.674Z,964.94
2023-01-18T03:09:16.430Z,964.93
2023-01-18T03:10:18.142Z,964.98
2023-01-18T03:11:19.873Z,964.92
2023-01-18T03:12:21.600Z,964.93
2023-01-18T03:13:23.346Z,964.92
2023-01-18T03:14:25.074Z,964.96
2023-01-18T03:15:26.839Z,964.91
2023-01-18T03:16:28.536Z,964.9
2023-01-18T03:17:30.253Z,964.96
2023-01-18T03:18:32.083Z,964.94
2023-01-18T03:19:33.756Z,964.97
2023-01-18T03:20:35.474Z,964.98
2023-01-18T03:21:37.200Z,964.96
2023-01-18T03:22:38.982Z,964.96
2023-01-18T03:23:40.707Z,965.02
2023-01-18T03:24:42.389Z,965.07
2023-01-18T03:25:44.180Z,965.06
2023-01-18T03:26:45.891Z,965.03
2023-01-18T03:27:47.591Z,965.1
2023-01-18T03:28:49.334Z,965.16
2023-01-18T03:29:51.079Z,965.14
2023-01-18T03:30:52.897Z,965.15
2023-01-18T03:31:54.565Z,965.19
2023-01-18T03:32:56.629Z,965.2
2023-01-18T03:33:58.004Z,965.19
2023-01-18T03:34:59.769Z,965.21
2023-01-18T03:36:01.487Z,965.18
2023-01-18T03:37:03.238Z,965.2
2023-01-18T03:38:04.953Z,965.22
2023-01-18T03:39:06.698Z,965.22
2023-01-18T03:40:08.748Z,965.2
2023-01-18T03:41:10.159Z,965.3
2023-01-18T03:42:11.874Z,965.24
2023-01-18T03:43:13.615Z,965.27
2023-01-18T03:44:15.395Z,965.18
2023-01-18T03:45:17.113Z,965.29
2023-01-18T03:46:18.965Z,965.34
2023-01-18T03:47:20.550Z,965.3
2023-01-18T03:48:22.277Z,965.36
2023-01-18T03:49:24.048Z,965.38
2023-01-18T03:50:25.773Z,965.42
2023-01-18T03:51:27.606Z,965.42
2023-01-18T03:52:29.241Z,965.45
2023-01-18T03:53:30.972Z,965.39
2023-01-18T03:54:32.698Z,965.44
2023-01-18T03:55:34.433Z,965.43
2023-01-18T03:56:36.143Z,965.46
2023-01-18T03:57:37.894Z,965.45
2023-01-18T03:58:39.625Z,965.51
2023-01-18T03:59:41.414Z,965.54
2023-01-18T04:00:43.089Z,965.55
2023-01-18T04:01:44.836Z,965.5
2023-01-18T04:02:46.627Z,965.52
2023-01-18T04:03:48.291Z,965.56
2023-01-18T04:04:50.152Z,965.55
2023-01-18T04:05:51.755Z,965.59
2023-01-18T04:06:53.491Z,965.56
2023-01-18T04:07:55.224Z,965.61
2023-01-18T04:08:56.949Z,965.6
2023-01-18T04:09:58.709Z,965.68
2023-01-18T04:11:00.473Z,965.69
2023-01-18T04:12:02.157Z,965.65
2023-01-18T04:13:03.904Z,965.66
2023-01-18T04:14:05.622Z,965.7
2023-01-18T04:15:07.369Z,965.72
2023-01-18T04:16:09.234Z,965.77
2023-01-18T04:17:10.850Z,965.68
2023-01-18T04:18:12.582Z,965.8
2023-01-18T04:19:14.326Z,965.79
2023-01-18T04:20:16.064Z,965.77
2023-01-18T04:21:17.775Z,965.85
2023-01-18T04:22:19.492Z,965.83
2023-01-18T04:23:21.228Z,965.84
2023-01-18T04:24:22.957Z,965.88
2023-01-18T04:25:24.712Z,965.83
2023-01-18T04:26:26.443Z,965.9
2023-01-18T04:27:28.159Z,965.87
2023-01-18T04:28:29.966Z,965.93
2023-01-18T04:29:31.642Z,965.91
2023-01-18T04:30:33.396Z,965.94
2023-01-18T04:31:35.198Z,965.9
2023-01-18T04:32:36.860Z,965.94
2023-01-18T04:33:38.597Z,965.94
2023-01-18T04:34:40.418Z,965.96
2023-01-18T04:35:42.051Z,965.99
2023-01-18T04:36:43.774Z,965.98
2023-01-18T04:37:45.526Z,965.99
2023-01-18T04:38:47.267Z,965.97
2023-01-18T04:39:49.006Z,966.04
2023-01-18T04:40:50.740Z,966.07
2023-01-18T04:41:52.434Z,966.05
2023-01-18T04:42:54.172Z,966.02
2023-01-18T04:43:55.920Z,966.06
2023-01-18T04:44:57.634Z,966.09
2023-01-18T04:45:59.374Z,966.08
2023-01-18T04:47:01.108Z,966.04
2023-01-18T04:48:02.879Z,966.05
2023-01-18T04:49:04.600Z,966.07
2023-01-18T04:50:06.327Z,966.08
2023-01-18T04:51:08.057Z,966.16
2023-01-18T04:52:09.779Z,966.12
2023-01-18T04:53:11.498Z,966.09
2023-01-18T04:54:13.240Z,966.16
2023-01-18T04:55:14.988Z,966.14
2023-01-18T04:56:16.740Z,966.18
2023-01-18T04:57:18.473Z,966.13
2023-01-18T04:58:20.291Z,966.17
2023-01-18T04:59:21.897Z,966.18
2023-01-18T05:00:23.647Z,966.19
2023-01-18T05:01:25.567Z,966.2
2023-01-18T05:02:27.256Z,966.27
2023-01-18T05:03:28.858Z,966.26
2023-01-18T05:04:30.568Z,966.24
2023-01-18T05:05:32.342Z,966.23
2023-01-18T05:06:34.081Z,966.3
2023-01-18T05:07:35.788Z,966.29
2023-01-18T05:08:37.533Z,966.35
2023-01-18T05:09:39.266Z,966.38
2023-01-18T05:10:41.025Z,966.38
2023-01-18T05:11:42.723Z,966.4
2023-01-18T05:12:44.476Z,966.39
2023-01-18T05:13:46.208Z,966.41
2023-01-18T05:14:47.921Z,966.4
2023-01-18T05:15:49.667Z,966.47
2023-01-18T05:16:51.417Z,966.47
2023-01-18T05:17:53.187Z,966.51
2023-01-18T05:18:54.864Z,966.48
2023-01-18T05:19:56.608Z,966.54
2023-01-18T05:20:58.326Z,966.51
2023-01-18T05:22:00.136Z,966.45
2023-01-18T05:23:01.824Z,966.56
2023-01-18T05:24:03.515Z,966.52
2023-01-18T05:25:05.268Z,966.54
2023-01-18T05:26:07.059Z,966.57
2023-01-18T05:27:08.743Z,966.58
2023-01-18T05:28:10.479Z,966.58
2023-01-18T05:29:12.215Z,966.62
2023-01-18T05:30:13.948Z,966.64
2023-01-18T05:31:15.712Z,966.66
2023-01-18T05:32:17.436Z,966.68
2023-01-18T05:33:19.126Z,966.68
2023-01-18T05:34:20.941Z,966.69
2023-01-18T05:35:22.609Z,966.71
2023-01-18T05:36:24.351Z,966.78
2023-01-18T05:37:26.064Z,966.73
2023-01-18T05:38:27.850Z,966.81
2023-01-18T05:39:29.550Z,966.78
2023-01-18T05:40:31.306Z,966.85
2023-01-18T05:41:33.015Z,966.86
2023-01-18T05:42:34.733Z,966.81
2023-01-18T05:43:36.464Z,966.91
2023-01-18T05:44:38.221Z,966.93
2023-01-18T05:45:40.046Z,967.01
2023-01-18T05:46:41.661Z,967
2023-01-18T05:47:43.422Z,966.99
2023-01-18T05:48:45.157Z,967
2023-01-18T05:49:46.900Z,966.96
2023-01-18T05:50:48.622Z,966.97
2023-01-18T05:51:50.360Z,967.02
2023-01-18T05:52:52.162Z,967.02
2023-01-18T05:53:53.841Z,967.03
2023-01-18T05:54:55.633Z,967.09
2023-01-18T05:55:57.292Z,967.09
2023-01-18T05:56:59.005Z,967.1
2023-01-18T05:58:00.755Z,967.13
2023-01-18T05:59:02.471Z,967.17
2023-01-18T06:00:04.253Z,967.15
2023-01-18T06:01:05.989Z,967.16
2023-01-18T06:02:07.757Z,967.13
2023-01-18T06:03:10.825Z,967.15
2023-01-18T06:04:11.263Z,967.14
2023-01-18T06:05:12.916Z,967.2
2023-01-18T06:06:14.653Z,967.18
2023-01-18T06:07:16.391Z,967.24
2023-01-18T06:08:18.176Z,967.2
2023-01-18T06:09:19.884Z,967.2
2023-01-18T06:10:21.614Z,967.21
2023-01-18T06:11:23.357Z,967.28
2023-01-18T06:12:25.069Z,967.25
2023-01-18T06:13:26.779Z,967.3
2023-01-18T06:14:29.307Z,967.32
2023-01-18T06:15:30.285Z,967.33
2023-01-18T06:16:32.076Z,967.37
2023-01-18T06:17:33.763Z,967.39
2023-01-18T06:18:35.467Z,967.41
2023-01-18T06:19:37.251Z,967.37
2023-01-18T06:20:38.958Z,967.37
2023-01-18T06:21:40.655Z,967.41
2023-01-18T06:22:42.417Z,967.43
2023-01-18T06:23:44.132Z,967.4
2023-01-18T06:24:45.837Z,967.43
2023-01-18T06:25:47.577Z,967.43
2023-01-18T06:26:49.335Z,967.47
2023-01-18T06:27:51.091Z,967.49
2023-01-18T06:28:52.819Z,967.46
2023-01-18T06:29:54.556Z,967.51
2023-01-18T06:30:56.278Z,967.53
2023-01-18T06:31:58.051Z,967.57
2023-01-18T06:33:00.206Z,967.58
2023-01-18T06:34:01.454Z,967.62
2023-01-18T06:35:03.182Z,967.63
2023-01-18T06:36:04.943Z,967.58
2023-01-18T06:37:06.689Z,967.61
2023-01-18T06:38:08.577Z,967.64
2023-01-18T06:39:10.151Z,967.66
2023-01-18T06:40:11.876Z,967.62
2023-01-18T06:41:13.590Z,967.7
2023-01-18T06:42:15.338Z,967.68
2023-01-18T06:43:17.062Z,967.69
2023-01-18T06:44:18.909Z,967.66
2023-01-18T06:45:20.569Z,967.7
2023-01-18T06:46:22.254Z,967.77
2023-01-18T06:47:24.027Z,967.78
2023-01-18T06:48:25.772Z,967.77
2023-01-18T06:49:27.453Z,967.79
2023-01-18T06:50:29.201Z,967.84
2023-01-18T06:51:30.996Z,967.83
2023-01-18T06:52:32.687Z,967.88
2023-01-18T06:53:37.481Z,967.95
2023-01-18T06:54:36.144Z,967.84
2023-01-18T06:55:37.891Z,967.94
2023-01-18T06:56:39.679Z,968.01
2023-01-18T06:57:41.337Z,968.01
2023-01-18T06:58:43.104Z,968.05
2023-01-18T06:59:44.812Z,968.08
2023-01-18T07:00:46.608Z,968.12
2023-01-18T07:01:48.490Z,968.12
2023-01-18T07:02:50.041Z,968.1
2023-01-18T07:03:51.813Z,968.13
2023-01-18T07:04:53.468Z,968.09
2023-01-18T07:05:55.197Z,968.11
2023-01-18T07:06:56.965Z,968.2
2023-01-18T07:07:58.704Z,968.12
2023-01-18T07:09:00.414Z,968.24
2023-01-18T07:10:02.137Z,968.27
2023-01-18T07:11:03.868Z,968.26
2023-01-18T07:12:05.595Z,968.28
2023-01-18T07:13:07.316Z,968.24
2023-01-18T07:14:09.088Z,968.32
2023-01-18T07:15:21.229Z,968.31
2023-01-18T07:16:12.580Z,968.29
2023-01-18T07:17:14.314Z,968.31
2023-01-18T07:18:16.022Z,968.28
2023-01-18T07:19:17.777Z,968.38
2023-01-18T07:20:19.478Z,968.39
2023-01-18T07:21:21.522Z,968.33
2023-01-18T07:22:22.952Z,968.41
2023-01-18T07:23:24.662Z,968.44
2023-01-18T07:24:26.390Z,968.47
2023-01-18T07:25:28.143Z,968.53
2023-01-18T07:26:29.878Z,968.58
2023-01-18T07:27:31.614Z,968.65
2023-01-18T07:28:33.362Z,968.69
2023-01-18T07:29:35.064Z,968.7
2023-01-18T07:30:36.804Z,968.69
2023-01-18T07:31:38.584Z,968.68
2023-01-18T07:32:40.289Z,968.69
2023-01-18T07:33:42.005Z,968.76
2023-01-18T07:34:43.776Z,968.77
2023-01-18T07:35:45.486Z,968.79
2023-01-18T07:36:47.210Z,968.8
2023-01-18T07:37:48.967Z,968.81
2023-01-18T07:38:50.720Z,968.81
2023-01-18T07:39:52.408Z,968.84
2023-01-18T07:40:54.142Z,968.86
2023-01-18T07:41:55.916Z,968.84
2023-01-18T07:42:58.049Z,968.88
2023-01-18T07:43:59.392Z,968.91
2023-01-18T07:45:01.109Z,968.9
2023-01-18T07:46:02.876Z,968.94
2023-01-18T07:47:04.548Z,968.93
2023-01-18T07:48:06.283Z,968.99
2023-01-18T07:49:08.011Z,969.02
2023-01-18T07:50:09.779Z,969.03
2023-01-18T07:51:11.479Z,969.02
2023-01-18T07:52:13.290Z,969.1
2023-01-18T07:53:14.965Z,969.11
2023-01-18T07:54:16.693Z,969.08
2023-01-18T07:55:18.448Z,969.11
2023-01-18T07:56:20.160Z,969.17
2023-01-18T07:57:21.906Z,969.13
2023-01-18T07:58:23.621Z,969.16
2023-01-18T07:59:25.394Z,969.15
2023-01-18T08:00:27.088Z,969.18
2023-01-18T08:01:28.938Z,969.18
2023-01-18T08:02:30.547Z,969.23
2023-01-18T08:03:32.324Z,969.26
2023-01-18T08:04:34.081Z,969.23
2023-01-18T08:05:35.740Z,969.31
2023-01-18T08:06:37.476Z,969.32
2023-01-18T08:07:39.221Z,969.28
2023-01-18T08:08:40.993Z,969.35
2023-01-18T08:09:42.721Z,969.32
2023-01-18T08:10:44.446Z,969.35
2023-01-18T08:11:46.146Z,969.35
2023-01-18T08:12:47.935Z,969.4
2023-01-18T08:13:49.624Z,969.41
2023-01-18T08:14:51.339Z,969.41
2023-01-18T08:15:53.168Z,969.42
2023-01-18T08:16:54.822Z,969.42
2023-01-18T08:17:56.582Z,969.39
2023-01-18T08:18:58.320Z,969.5
2023-01-18T08:20:00.027Z,969.52
2023-01-18T08:21:01.818Z,969.38
2023-01-18T08:22:03.503Z,969.49
2023-01-18T08:23:05.217Z,969.55
2023-01-18T08:24:06.970Z,969.52
2023-01-18T08:25:08.729Z,969.56
2023-01-18T08:26:10.415Z,969.58
2023-01-18T08:27:12.143Z,969.55
2023-01-18T08:28:13.885Z,969.59
2023-01-18T08:29:15.611Z,969.58
2023-01-18T08:30:17.314Z,969.64
2023-01-18T08:31:19.220Z,969.65
2023-01-18T08:32:20.811Z,969.63
2023-01-18T08:33:22.537Z,969.66
2023-01-18T08:34:25.473Z,969.67
2023-01-18T08:35:26.037Z,969.7
2023-01-18T08:36:27.745Z,969.68
2023-01-18T08:37:29.457Z,969.72
2023-01-18T08:38:31.188Z,969.71
2023-01-18T08:39:32.971Z,969.77
2023-01-18T08:40:34.644Z,969.75
2023-01-18T08:41:36.371Z,969.78
2023-01-18T08:42:38.164Z,969.79
2023-01-18T08:43:39.916Z,969.81
2023-01-18T08:44:41.573Z,969.81
2023-01-18T08:45:43.368Z,969.86
2023-01-18T08:46:45.105Z,969.88
2023-01-18T08:47:46.824Z,969.83
2023-01-18T08:48:48.548Z,969.92
2023-01-18T08:49:50.281Z,969.9
2023-01-18T08:50:51.987Z,970.01
2023-01-18T08:51:53.756Z,970.01
2023-01-18T08:52:55.493Z,969.99
2023-01-18T08:53:57.334Z,970.03
2023-01-18T08:54:58.941Z,970.07
2023-01-18T08:56:00.690Z,970.07
2023-01-18T08:57:02.456Z,970.08
2023-01-18T08:58:04.151Z,970.1
2023-01-18T08:59:05.939Z,970.1
2023-01-18T09:00:07.582Z,970.14
2023-01-18T09:01:09.396Z,970.11
2023-01-18T09:02:11.133Z,970.17
2023-01-18T09:03:12.836Z,970.12
2023-01-18T09:04:15.652Z,970.16
2023-01-18T09:05:16.294Z,970.17
2023-01-18T09:06:18.025Z,970.17
2023-01-18T09:07:19.733Z,970.14
2023-01-18T09:08:21.498Z,970.21
2023-01-18T09:09:23.210Z,970.22
2023-01-18T09:10:24.918Z,970.21
2023-01-18T09:11:26.673Z,970.25
2023-01-18T09:12:28.439Z,970.29
2023-01-18T09:13:30.162Z,970.37
2023-01-18T09:14:31.873Z,970.36
2023-01-18T09:15:33.662Z,970.39
2023-01-18T09:16:35.349Z,970.39
2023-01-18T09:17:37.099Z,970.41
2023-01-18T09:18:38.834Z,970.43
2023-01-18T09:19:40.574Z,970.48
2023-01-18T09:20:42.272Z,970.48
2023-01-18T09:21:44.033Z,970.47
2023-01-18T09:22:45.738Z,970.46
2023-01-18T09:23:47.501Z,970.51
2023-01-18T09:24:49.243Z,970.51
2023-01-18T09:25:50.930Z,970.47
2023-01-18T09:26:52.702Z,970.5
2023-01-18T09:27:54.412Z,970.48
2023-01-18T09:28:56.153Z,970.51
2023-01-18T09:29:57.887Z,970.55
2023-01-18T09:30:59.653Z,970.58
2023-01-18T09:32:01.387Z,970.6
2023-01-18T09:33:03.099Z,970.64
2023-01-18T09:34:18.545Z,970.68
2023-01-18T09:35:06.548Z,970.71
2023-01-18T09:36:08.286Z,970.68
2023-01-18T09:37:10.069Z,970.7
2023-01-18T09:38:11.814Z,970.75
2023-01-18T09:39:13.493Z,970.75
2023-01-18T09:40:15.225Z,970.8
2023-01-18T09:41:16.969Z,970.78
2023-01-18T09:42:18.729Z,970.81
2023-01-18T09:43:20.467Z,970.76
2023-01-18T09:44:22.190Z,970.83
2023-01-18T09:45:23.869Z,970.79
2023-01-18T09:46:25.765Z,970.84
2023-01-18T09:47:27.361Z,970.88
2023-01-18T09:48:29.079Z,970.92
2023-01-18T09:49:30.817Z,970.95
2023-01-18T09:50:32.557Z,970.94
2023-01-18T09:51:34.288Z,971
2023-01-18T09:52:36.006Z,971
2023-01-18T09:53:37.754Z,971.06
2023-01-18T09:54:39.480Z,971
2023-01-18T09:55:41.218Z,971.01
2023-01-18T09:56:43.032Z,971.03
2023-01-18T09:57:44.767Z,970.98
2023-01-18T09:58:46.597Z,971
2023-01-18T09:59:48.220Z,970.99
2023-01-18T10:00:50.154Z,971.01
2023-01-18T10:01:53.788Z,971.07
2023-01-18T10:02:53.437Z,971.01
2023-01-18T10:03:55.148Z,971.05
2023-01-18T10:04:56.870Z,971.06
2023-01-18T10:05:58.588Z,971.04
2023-01-18T10:07:00.355Z,971.05
2023-01-18T10:08:02.073Z,971.01
2023-01-18T10:09:03.789Z,971.04
2023-01-18T10:10:05.526Z,971.09
2023-01-18T10:11:09.730Z,971.07
2023-01-18T10:12:09.035Z,971.14
2023-01-18T10:13:10.730Z,971.07
2023-01-18T10:14:12.444Z,971.15
2023-01-18T10:15:14.189Z,971.15
2023-01-18T10:16:16.023Z,971.15
2023-01-18T10:17:17.709Z,971.14
2023-01-18T10:18:19.433Z,971.16
2023-01-18T10:19:21.129Z,971.1
2023-01-18T10:20:22.895Z,971.11
2023-01-18T10:21:24.650Z,971.17
2023-01-18T10:22:26.357Z,971.14
2023-01-18T10:23:29.070Z,971.17
2023-01-18T10:24:29.823Z,971.19
2023-01-18T10:25:31.534Z,971.22
2023-01-18T10:26:33.304Z,971.24
2023-01-18T10:27:35.024Z,971.22
2023-01-18T10:28:36.745Z,971.2
2023-01-18T10:29:38.469Z,971.25
2023-01-18T10:30:40.291Z,971.29
2023-01-18T10:31:42.016Z,971.32
2023-01-18T10:32:43.716Z,971.3
2023-01-18T10:33:45.402Z,971.33
2023-01-18T10:34:47.127Z,971.33
2023-01-18T10:35:48.866Z,971.3
2023-01-18T10:36:50.560Z,971.35
2023-01-18T10:37:52.306Z,971.36
2023-01-18T10:38:54.090Z,971.36
2023-01-18T10:39:55.763Z,971.35
2023-01-18T10:40:57.512Z,971.35
2023-01-18T10:41:59.227Z,971.37
2023-01-18T10:43:01.506Z,971.32
2023-01-18T10:44:02.713Z,971.43
2023-01-18T10:45:04.430Z,971.43
2023-01-18T10:46:06.220Z,971.46
2023-01-18T10:47:07.906Z,971.5
2023-01-18T10:48:09.657Z,971.44
2023-01-18T10:49:11.384Z,971.51
2023-01-18T10:50:13.102Z,971.48
2023-01-18T10:51:14.844Z,971.5
2023-01-18T10:52:16.572Z,971.52
2023-01-18T10:53:18.298Z,971.49
2023-01-18T10:54:20.036Z,971.51
2023-01-18T10:55:21.793Z,971.55
2023-01-18T10:56:23.523Z,971.59
2023-01-18T10:57:25.248Z,971.57
2023-01-18T10:58:26.994Z,971.66
2023-01-18T10:59:28.728Z,971.6
2023-01-18T11:00:30.472Z,971.73
2023-01-18T11:01:32.313Z,971.69
2023-01-18T11:02:33.962Z,971.7
2023-01-18T11:03:35.659Z,971.74
2023-01-18T11:04:37.410Z,971.71
2023-01-18T11:05:40.170Z,971.74
2023-01-18T11:06:40.866Z,971.73
2023-01-18T11:07:42.602Z,971.76
2023-01-18T11:08:44.314Z,971.8
2023-01-18T11:09:46.053Z,971.78
2023-01-18T11:10:47.790Z,971.81
2023-01-18T11:11:49.513Z,971.77
2023-01-18T11:12:51.257Z,971.8
2023-01-18T11:13:52.997Z,971.82
2023-01-18T11:14:54.722Z,971.81
2023-01-18T11:15:56.445Z,971.82
2023-01-18T11:16:58.171Z,971.82
2023-01-18T11:17:59.955Z,971.88
2023-01-18T11:19:01.669Z,971.82
2023-01-18T11:20:03.413Z,971.84
2023-01-18T11:21:05.157Z,971.85
2023-01-18T11:22:06.880Z,971.81
2023-01-18T11:23:08.591Z,971.8
2023-01-18T11:24:10.358Z,971.79
2023-01-18T11:25:12.072Z,971.79
2023-01-18T11:26:13.819Z,971.84
2023-01-18T11:27:15.548Z,971.8
2023-01-18T11:28:17.269Z,971.77
2023-01-18T11:29:19.009Z,971.7
2023-01-18T11:30:20.841Z,971.74
2023-01-18T11:31:22.675Z,971.73
2023-01-18T11:32:24.210Z,971.72
2023-01-18T11:33:25.931Z,971.76
2023-01-18T11:34:27.662Z,971.79
2023-01-18T11:35:29.409Z,971.82
2023-01-18T11:36:31.160Z,971.82
2023-01-18T11:37:32.860Z,971.8
2023-01-18T11:38:34.632Z,971.85
2023-01-18T11:39:36.327Z,971.87
2023-01-18T11:40:38.061Z,971.86
2023-01-18T11:41:39.788Z,971.89
2023-01-18T11:42:41.514Z,971.87
2023-01-18T11:43:43.267Z,971.87
2023-01-18T11:44:44.992Z,971.93
2023-01-18T11:45:46.787Z,971.9
2023-01-18T11:46:48.467Z,971.89
2023-01-18T11:47:50.225Z,971.89
2023-01-18T11:48:51.926Z,971.87
2023-01-18T11:49:53.682Z,971.88
2023-01-18T11:50:55.386Z,971.9
2023-01-18T11:51:57.184Z,971.82
2023-01-18T11:52:58.873Z,971.92
2023-01-18T11:54:00.597Z,971.89
2023-01-18T11:55:02.340Z,971.76
2023-01-18T11:56:04.190Z,971.87
2023-01-18T11:57:05.781Z,971.86
2023-01-18T11:58:07.553Z,971.82
2023-01-18T11:59:09.270Z,971.91
2023-01-18T12:00:11.039Z,971.85
2023-01-18T12:01:12.828Z,971.9
2023-01-18T12:02:14.482Z,971.89
2023-01-18T12:03:16.286Z,971.95
2023-01-18T12:04:17.964Z,971.9
2023-01-18T12:05:19.688Z,971.97
2023-01-18T12:06:21.501Z,971.99
2023-01-18T12:07:23.138Z,971.98
2023-01-18T12:08:24.862Z,971.97
2023-01-18T12:09:26.617Z,971.98
2023-01-18T12:10:28.347Z,971.97
2023-01-18T12:11:30.102Z,971.94
2023-01-18T12:12:31.808Z,972.03
2023-01-18T12:13:33.554Z,972.06
2023-01-18T12:14:35.276Z,972.02
2023-01-18T12:15:37.000Z,972.03
2023-01-18T12:16:38.796Z,972.06
2023-01-18T12:17:40.475Z,972.08
2023-01-18T12:18:42.267Z,972.04
2023-01-18T12:19:44.001Z,972.06
2023-01-18T12:20:45.706Z,972.06
2023-01-18T12:21:47.436Z,972.1
2023-01-18T12:22:49.141Z,972.06
2023-01-18T12:23:50.870Z,972.08
2023-01-18T12:24:52.632Z,972.11
2023-01-18T12:26:10.717Z,972.14
2023-01-18T12:26:56.088Z,972.15
2023-01-18T12:27:58.324Z,972.18
2023-01-18T12:28:59.536Z,972.19
2023-01-18T12:30:01.293Z,972.16
2023-01-18T12:31:03.182Z,972.16
2023-01-18T12:32:04.751Z,972.18
2023-01-18T12:33:06.569Z,972.2
2023-01-18T12:34:08.236Z,972.22
2023-01-18T12:35:22.981Z,972.21
2023-01-18T12:36:11.688Z,972.22
2023-01-18T12:37:13.429Z,972.28
2023-01-18T12:38:15.144Z,972.27
2023-01-18T12:39:16.930Z,972.27
2023-01-18T12:40:18.635Z,972.31
2023-01-18T12:41:20.367Z,972.33
2023-01-18T12:42:22.101Z,972.34
2023-01-18T12:43:23.828Z,972.33
2023-01-18T12:44:25.619Z,972.36
2023-01-18T12:45:27.288Z,972.35
2023-01-18T12:46:29.128Z,972.4
2023-01-18T12:47:30.768Z,972.41
2023-01-18T12:48:32.488Z,972.4
2023-01-18T12:49:34.237Z,972.39
2023-01-18T12:50:35.970Z,972.39
2023-01-18T12:51:37.752Z,972.39
2023-01-18T12:52:39.476Z,972.43
2023-01-18T12:53:41.160Z,972.5